Time;durP1;ratioP1;P1;durP2;ratioP2;P2;SDS_P1;SDS_P2;PMS_P1;PMS_P2;Temp;Humidity;BMP_temperature;BMP_pressure;BME280_temperature;BME280_humidity;BME280_pressure;Samples;Min_cycle;Max_cycle;Signal;HPM_P1;HPM_P2
2022/05/18 00:03:26;;;;;;;3.92;2.03;;;;;;;;;;8265214;28;20046;-81
2022/05/18 00:07:28;;;;;;;3.38;2.40;;;;;;;;;;8259173;28;20117;-81
2022/05/18 00:11:32;;;;;;;4.13;2.53;;;;;;;;;;8258564;28;20050;-81
2022/05/18 00:15:36;;;;;;;4.80;2.15;;;;;;;;;;8268583;28;20449;-81
2022/05/18 00:19:39;;;;;;;3.22;1.85;;;;;;;;;;8270944;28;20105;-81
2022/05/18 00:23:42;;;;;;;3.38;2.00;;;;;;;;;;8270856;28;20042;-82
2022/05/18 00:27:46;;;;;;;3.15;2.05;;;;;;;;;;8270698;28;20046;-81
2022/05/18 00:31:49;;;;;;;3.72;1.90;;;;;;;;;;8271112;28;20426;-81
2022/05/18 00:35:51;;;;;;;4.03;1.90;;;;;;;;;;8270866;28;20050;-84
2022/05/18 00:39:54;;;;;;;5.65;2.05;;;;;;;;;;8270512;28;20053;-90
2022/05/18 00:43:58;;;;;;;3.85;1.98;;;;;;;;;;8270669;28;20474;-81
2022/05/18 00:48:01;;;;;;;5.70;1.70;;;;;;;;;;8284792;28;20058;-81
2022/05/18 00:52:04;;;;;;;5.22;2.08;;;;;;;;;;8301059;28;20046;-83
2022/05/18 00:56:12;;;;;;;7.25;3.15;;;;;;;;;;8300929;28;20429;-81
2022/05/18 01:00:20;;;;;;;4.60;1.90;;;;;;;;;;8301090;28;20104;-81
2022/05/18 01:04:26;;;;;;;3.45;1.88;;;;;;;;;;8300754;28;20045;-81
2022/05/18 01:08:35;;;;;;;4.30;2.10;;;;;;;;;;8300571;28;20120;-82
2022/05/18 01:12:37;;;;;;;2.58;1.80;;;;;;;;;;8300638;28;20046;-89
2022/05/18 01:16:42;;;;;;;4.65;1.95;;;;;;;;;;8300574;28;20056;-81
2022/05/18 01:20:47;;;;;;;6.22;1.80;;;;;;;;;;8300198;28;20045;-81
2022/05/18 01:25:01;;;;;;;5.70;2.00;;;;;;;;;;8299854;28;20046;-81
2022/05/18 01:29:06;;;;;;;3.53;1.80;;;;;;;;;;8291502;28;20046;-81
2022/05/18 01:33:09;;;;;;;2.85;1.77;;;;;;;;;;8264757;28;20121;-90
2022/05/18 01:37:14;;;;;;;3.30;1.88;;;;;;;;;;8267034;28;20062;-89
2022/05/18 01:41:20;;;;;;;4.90;2.17;;;;;;;;;;8266863;28;20050;-90
2022/05/18 01:45:24;;;;;;;4.28;1.95;;;;;;;;;;8265993;28;20057;-89
2022/05/18 01:49:27;;;;;;;3.80;1.80;;;;;;;;;;8270485;28;20101;-86
2022/05/18 01:53:31;;;;;;;5.18;2.03;;;;;;;;;;8265777;28;20038;-87
2022/05/18 01:57:35;;;;;;;7.28;2.17;;;;;;;;;;8263652;28;20564;-82
2022/05/18 02:01:40;;;;;;;5.13;1.90;;;;;;;;;;8267382;28;20494;-89
2022/05/18 02:05:43;;;;;;;4.70;2.38;;;;;;;;;;8265497;28;20089;-91
2022/05/18 02:09:45;;;;;;;4.68;2.17;;;;;;;;;;8265175;28;20038;-91
2022/05/18 02:13:48;;;;;;;4.07;1.90;;;;;;;;;;8267608;28;20486;-81
2022/05/18 02:17:53;;;;;;;3.40;2.05;;;;;;;;;;8267406;28;20057;-81
2022/05/18 02:21:56;;;;;;;3.60;2.13;;;;;;;;;;8267460;28;20054;-81
2022/05/18 02:25:59;;;;;;;3.05;1.83;;;;;;;;;;8296631;28;20563;-81
2022/05/18 02:30:02;;;;;;;3.63;2.08;;;;;;;;;;8294765;28;20153;-85
2022/05/18 02:34:07;;;;;;;4.20;1.90;;;;;;;;;;8266919;28;20051;-81
2022/05/18 02:38:10;;;;;;;6.68;2.20;;;;;;;;;;8266831;28;20050;-89
2022/05/18 02:42:13;;;;;;;9.68;4.00;;;;;;;;;;8266827;28;20047;-81
2022/05/18 02:46:18;;;;;;;18.30;7.07;;;;;;;;;;8287650;28;20053;-89
2022/05/18 02:50:23;;;;;;;26.13;10.30;;;;;;;;;;8297676;28;20050;-89
2022/05/18 02:58:47;;;;;;;25.55;11.13;;;;;;;;;;8297746;28;20046;-89
2022/05/18 03:02:50;;;;;;;12.25;6.32;;;;;;;;;;8297490;28;20057;-81
2022/05/18 03:06:54;;;;;;;16.95;7.75;;;;;;;;;;8297547;28;20054;-82
2022/05/18 03:10:57;;;;;;;16.77;7.18;;;;;;;;;;8297158;28;20410;-87
2022/05/18 03:15:00;;;;;;;11.35;5.72;;;;;;;;;;8297116;28;20481;-81
2022/05/18 03:19:02;;;;;;;11.00;5.13;;;;;;;;;;8297058;28;20483;-81
2022/05/18 03:27:26;;;;;;;3.42;2.30;;;;;;;;;;8297007;28;20041;-81
2022/05/18 03:31:29;;;;;;;5.72;2.97;;;;;;;;;;8297351;28;20593;-81
2022/05/18 03:35:31;;;;;;;5.70;2.60;;;;;;;;;;8296961;28;20231;-82
2022/05/18 03:39:42;;;;;;;5.30;2.72;;;;;;;;;;8296812;28;20096;-82
2022/05/18 03:43:44;;;;;;;6.65;2.90;;;;;;;;;;8281930;28;20053;-81
2022/05/18 03:47:48;;;;;;;9.52;3.22;;;;;;;;;;8265344;28;20482;-83
2022/05/18 03:51:51;;;;;;;7.15;4.05;;;;;;;;;;8277976;28;20121;-81
2022/05/18 03:55:55;;;;;;;9.85;4.00;;;;;;;;;;8302892;28;20037;-81
2022/05/18 03:59:57;;;;;;;12.75;5.07;;;;;;;;;;8302842;28;20046;-82
2022/05/18 04:04:00;;;;;;;16.38;9.38;;;;;;;;;;8302937;28;20401;-81
2022/05/18 04:08:03;;;;;;;16.38;9.00;;;;;;;;;;8264975;28;20050;-82
2022/05/18 04:12:08;;;;;;;14.23;7.90;;;;;;;;;;8271294;28;20046;-87
2022/05/18 04:16:14;;;;;;;8.52;5.50;;;;;;;;;;8271316;28;20125;-82
2022/05/18 04:20:24;;;;;;;8.65;5.47;;;;;;;;;;8271364;28;20043;-87
2022/05/18 04:24:28;;;;;;;14.20;7.55;;;;;;;;;;8302094;28;20477;-82
2022/05/18 04:28:39;;;;;;;13.68;6.32;;;;;;;;;;8284168;28;20101;-82
2022/05/18 04:32:44;;;;;;;13.65;6.07;;;;;;;;;;8270882;28;20053;-82
2022/05/18 04:36:51;;;;;;;10.32;5.15;;;;;;;;;;8270894;28;20539;-88
2022/05/18 04:40:55;;;;;;;8.35;3.95;;;;;;;;;;8270459;28;20038;-82
2022/05/18 04:45:03;;;;;;;9.77;4.93;;;;;;;;;;8270151;28;20046;-89
2022/05/18 04:49:06;;;;;;;12.52;4.35;;;;;;;;;;8301438;28;20401;-82
2022/05/18 04:53:08;;;;;;;6.88;2.63;;;;;;;;;;8301210;28;20046;-82
2022/05/18 04:57:11;;;;;;;6.90;3.42;;;;;;;;;;8301606;28;20493;-82
2022/05/18 05:01:15;;;;;;;6.43;2.50;;;;;;;;;;8300728;28;20076;-82
2022/05/18 05:05:18;;;;;;;5.20;2.00;;;;;;;;;;8301132;28;20129;-82
2022/05/18 05:09:22;;;;;;;2.90;1.80;;;;;;;;;;8300729;28;20046;-82
2022/05/18 05:13:26;;;;;;;3.17;1.50;;;;;;;;;;8300470;28;20493;-82
2022/05/18 05:17:30;;;;;;;4.90;1.75;;;;;;;;;;8300443;28;20073;-82
2022/05/18 05:21:34;;;;;;;2.75;1.70;;;;;;;;;;8300139;28;20120;-82
2022/05/18 05:25:38;;;;;;;3.75;1.85;;;;;;;;;;8279557;28;20046;-83
2022/05/18 05:29:40;;;;;;;4.43;1.70;;;;;;;;;;8266210;28;20081;-85
2022/05/18 05:33:45;;;;;;;3.75;1.60;;;;;;;;;;8267414;28;20057;-83
2022/05/18 05:37:48;;;;;;;4.20;1.67;;;;;;;;;;8268592;28;20410;-82
2022/05/18 05:41:51;;;;;;;3.53;1.80;;;;;;;;;;8268673;28;20046;-91
2022/05/18 05:45:58;;;;;;;2.83;1.60;;;;;;;;;;8268417;28;20062;-82
2022/05/18 05:50:02;;;;;;;4.93;2.30;;;;;;;;;;8268221;28;20038;-82
2022/05/18 05:54:07;;;;;;;2.10;1.63;;;;;;;;;;8268102;28;20125;-82
2022/05/18 05:58:09;;;;;;;6.78;1.80;;;;;;;;;;8261994;28;20053;-82
2022/05/18 06:02:15;;;;;;;1.70;1.38;;;;;;;;;;8261617;28;20100;-90
2022/05/18 06:06:20;;;;;;;2.58;1.70;;;;;;;;;;8299055;28;20405;-83
2022/05/18 06:10:23;;;;;;;3.50;1.60;;;;;;;;;;8298773;28;20104;-84
2022/05/18 06:14:27;;;;;;;2.33;1.30;;;;;;;;;;8298423;28;20481;-93
2022/05/18 06:18:30;;;;;;;4.45;1.70;;;;;;;;;;8228775;28;20096;-92
2022/05/18 06:22:36;;;;;;;3.95;1.60;;;;;;;;;;8269066;28;20072;-91
2022/05/18 06:26:40;;;;;;;2.22;1.50;;;;;;;;;;8273331;28;20057;-94
2022/05/18 06:30:44;;;;;;;3.05;1.55;;;;;;;;;;8267585;28;20482;-93
2022/05/18 06:34:48;;;;;;;5.85;1.50;;;;;;;;;;8267620;28;20497;-86
2022/05/18 06:38:53;;;;;;;2.78;1.58;;;;;;;;;;8276943;28;20055;-95
2022/05/18 06:42:56;;;;;;;6.10;2.05;;;;;;;;;;8253621;28;20474;-94
2022/05/18 06:47:00;;;;;;;2.10;1.55;;;;;;;;;;8265790;28;20061;-86
2022/05/18 06:51:02;;;;;;;5.85;1.70;;;;;;;;;;8281586;28;20054;-85
2022/05/18 06:55:07;;;;;;;4.50;1.30;;;;;;;;;;8265720;28;20050;-93
2022/05/18 06:59:13;;;;;;;4.93;1.50;;;;;;;;;;8277450;28;20053;-94
2022/05/18 07:03:16;;;;;;;3.10;1.40;;;;;;;;;;8282440;28;20066;-93
2022/05/18 07:07:19;;;;;;;3.40;1.90;;;;;;;;;;8265627;28;20129;-94
2022/05/18 07:11:24;;;;;;;2.38;1.05;;;;;;;;;;8275551;28;20070;-95
2022/05/18 07:15:27;;;;;;;1.92;1.40;;;;;;;;;;8291997;28;20686;-94
2022/05/18 07:19:30;;;;;;;3.97;1.58;;;;;;;;;;8272804;28;20047;-93
2022/05/18 07:23:34;;;;;;;6.07;1.90;;;;;;;;;;8279213;28;20046;-92
2022/05/18 07:27:39;;;;;;;4.03;1.50;;;;;;;;;;8291803;28;20452;-85
2022/05/18 07:36:02;;;;;;;3.60;1.63;;;;;;;;;;8302156;28;20382;-83
2022/05/18 07:40:06;;;;;;;1.90;1.23;;;;;;;;;;8301799;28;20102;-83
2022/05/18 07:44:11;;;;;;;4.50;1.17;;;;;;;;;;8302906;28;20128;-83
2022/05/18 07:48:14;;;;;;;2.08;1.27;;;;;;;;;;8302795;28;20338;-85
2022/05/18 07:52:16;;;;;;;2.15;1.30;;;;;;;;;;8265175;28;20046;-83
2022/05/18 07:56:19;;;;;;;3.78;1.55;;;;;;;;;;8271410;28;20054;-84
2022/05/18 08:00:24;;;;;;;2.20;1.00;;;;;;;;;;8268397;28;20045;-84
2022/05/18 08:04:27;;;;;;;1.50;1.10;;;;;;;;;;8268806;28;20065;-92
2022/05/18 08:08:31;;;;;;;3.83;1.20;;;;;;;;;;8254664;28;20437;-84
2022/05/18 08:24:38;;;;;;;3.45;1.70;;;;;;;;;;8428674;27;1883041;-83
2022/05/18 08:28:42;;;;;;;3.00;1.55;;;;;;;;;;8492852;28;20379;-82
2022/05/18 08:32:44;;;;;;;3.90;1.20;;;;;;;;;;8490970;28;20047;-83
2022/05/18 08:36:47;;;;;;;4.45;1.88;;;;;;;;;;8492460;28;20058;-83
2022/05/18 08:40:55;;;;;;;3.95;1.35;;;;;;;;;;8490653;28;20059;-82
2022/05/18 08:44:59;;;;;;;3.55;1.33;;;;;;;;;;8488714;28;20043;-83
2022/05/18 08:49:09;;;;;;;2.75;1.10;;;;;;;;;;8492293;28;20075;-82
2022/05/18 08:53:39;;;;;;;5.65;1.40;;;;;;;;;;8491958;28;20054;-82
2022/05/18 08:57:48;;;;;;;6.13;1.20;;;;;;;;;;8492158;28;20035;-85
2022/05/18 09:01:57;;;;;;;3.03;1.30;;;;;;;;;;8483643;28;20035;-86
2022/05/18 09:06:09;;;;;;;2.90;1.77;;;;;;;;;;8484677;28;20042;-86
2022/05/18 09:10:25;;;;;;;7.35;2.13;;;;;;;;;;8489850;28;20063;-86
2022/05/18 09:14:38;;;;;;;1.83;1.20;;;;;;;;;;8491666;28;20126;-83
2022/05/18 09:18:49;;;;;;;2.55;1.10;;;;;;;;;;8491878;28;20043;-83
2022/05/18 09:23:11;;;;;;;9.50;1.30;;;;;;;;;;8483596;28;20076;-83
2022/05/18 09:27:29;;;;;;;1.35;1.20;;;;;;;;;;8459132;28;20085;-85
2022/05/18 09:31:47;;;;;;;2.03;1.00;;;;;;;;;;8463610;28;20113;-83
2022/05/18 09:36:05;;;;;;;2.15;1.20;;;;;;;;;;8458523;28;20388;-85
2022/05/18 09:40:14;;;;;;;2.80;1.25;;;;;;;;;;8465907;28;20048;-84
2022/05/18 09:44:23;;;;;;;2.15;1.20;;;;;;;;;;8466809;28;20049;-84
2022/05/18 09:48:34;;;;;;;2.30;1.20;;;;;;;;;;8467831;28;20123;-85
2022/05/18 09:52:41;;;;;;;1.65;1.00;;;;;;;;;;8460787;28;20487;-84
2022/05/18 09:56:54;;;;;;;2.45;1.25;;;;;;;;;;8467662;28;20100;-83
2022/05/18 10:09:51;;;;;;;2.42;1.08;;;;;;;;;;8467299;28;20040;-85
2022/05/18 10:14:06;;;;;;;2.80;1.10;;;;;;;;;;8466825;28;20517;-83
2022/05/18 10:18:19;;;;;;;5.75;1.40;;;;;;;;;;8461284;28;20093;-84
2022/05/18 10:22:27;;;;;;;2.00;1.40;;;;;;;;;;8466401;28;20445;-84
2022/05/18 10:26:34;;;;;;;2.75;1.42;;;;;;;;;;8466693;28;20047;-83
2022/05/18 10:30:37;;;;;;;5.40;1.73;;;;;;;;;;8461595;28;20043;-82
2022/05/18 10:34:45;;;;;;;3.38;1.63;;;;;;;;;;8448952;28;20174;-83
2022/05/18 10:38:52;;;;;;;3.95;1.40;;;;;;;;;;8454965;28;20051;-81
2022/05/18 10:43:12;;;;;;;5.93;2.15;;;;;;;;;;8458211;28;20047;-83
2022/05/18 10:47:22;;;;;;;2.92;1.23;;;;;;;;;;8458573;28;20044;-86
2022/05/18 10:51:32;;;;;;;3.63;1.48;;;;;;;;;;8454014;28;20051;-82
2022/05/18 10:55:41;;;;;;;1.83;1.23;;;;;;;;;;8466171;28;20472;-83
2022/05/18 10:59:50;;;;;;;2.75;1.60;;;;;;;;;;8465331;28;20136;-82
2022/05/18 11:03:58;;;;;;;2.75;1.75;;;;;;;;;;8460640;28;20466;-83
2022/05/18 11:08:01;;;;;;;3.85;1.40;;;;;;;;;;8458328;28;20047;-82
2022/05/18 11:12:14;;;;;;;4.50;2.33;;;;;;;;;;8450429;28;20410;-82
2022/05/18 11:16:31;;;;;;;5.00;1.48;;;;;;;;;;8458254;28;20070;-83
2022/05/18 11:20:47;;;;;;;1.45;1.10;;;;;;;;;;8456646;28;20444;-87
2022/05/18 11:25:03;;;;;;;1.90;1.27;;;;;;;;;;8460899;28;20078;-82
2022/05/18 11:29:23;;;;;;;2.75;1.20;;;;;;;;;;8456706;28;20052;-85
2022/05/18 11:33:35;;;;;;;3.03;1.23;;;;;;;;;;8454913;28;20055;-83
2022/05/18 11:37:53;;;;;;;1.73;1.00;;;;;;;;;;8463747;28;20065;-84
2022/05/18 11:42:11;;;;;;;4.68;1.20;;;;;;;;;;8464337;28;20047;-83
2022/05/18 11:46:58;;;;;;;3.15;1.17;;;;;;;;;;8462880;28;20047;-83
2022/05/18 11:51:09;;;;;;;1.20;1.10;;;;;;;;;;8422366;28;20396;-84
2022/05/18 11:55:27;;;;;;;2.83;1.10;;;;;;;;;;8464000;28;20080;-83
2022/05/18 11:59:57;;;;;;;2.20;1.15;;;;;;;;;;8464432;28;20126;-82
2022/05/18 12:04:24;;;;;;;1.15;0.90;;;;;;;;;;8459438;28;20498;-83
2022/05/18 12:08:43;;;;;;;6.45;1.50;;;;;;;;;;8463709;28;20043;-83
2022/05/18 12:12:53;;;;;;;3.28;1.10;;;;;;;;;;8457256;28;20051;-83
2022/05/18 12:17:02;;;;;;;2.00;0.90;;;;;;;;;;8457736;28;20047;-83
2022/05/18 12:21:12;;;;;;;5.38;1.17;;;;;;;;;;8459916;28;20074;-83
2022/05/18 12:25:20;;;;;;;4.38;1.02;;;;;;;;;;8453911;28;20048;-83
2022/05/18 12:29:26;;;;;;;1.17;0.90;;;;;;;;;;8450395;28;20140;-82
2022/05/18 12:33:34;;;;;;;1.50;1.00;;;;;;;;;;8451643;28;20641;-83
2022/05/18 12:37:51;;;;;;;2.83;1.05;;;;;;;;;;8453299;28;20181;-83
2022/05/18 12:41:58;;;;;;;3.20;1.20;;;;;;;;;;8447710;28;20044;-84
2022/05/18 12:46:05;;;;;;;3.95;1.20;;;;;;;;;;8447700;28;20085;-84
2022/05/18 12:50:18;;;;;;;2.83;1.15;;;;;;;;;;8458539;28;20657;-84
2022/05/18 12:54:33;;;;;;;2.78;1.10;;;;;;;;;;8458254;28;20079;-84
2022/05/18 12:58:43;;;;;;;8.77;1.30;;;;;;;;;;8441620;28;20399;-86
2022/05/18 13:02:50;;;;;;;2.50;1.23;;;;;;;;;;8458312;28;20592;-83
2022/05/18 13:06:56;;;;;;;1.40;1.13;;;;;;;;;;8461178;28;20051;-83
2022/05/18 13:11:33;;;;;;;3.33;1.10;;;;;;;;;;8440092;28;20101;-84
2022/05/18 13:15:53;;;;;;;4.00;1.05;;;;;;;;;;8462721;28;20048;-84
2022/05/18 13:20:04;;;;;;;2.85;1.08;;;;;;;;;;8455743;28;20063;-86
2022/05/18 13:24:13;;;;;;;;;;;;;;;;;;8451605;28;20055;-83
2022/05/18 13:28:20;;;;;;;2.22;0.93;;;;;;;;;;8454687;28;19923;-84
2022/05/18 13:32:26;;;;;;;3.92;0.93;;;;;;;;;;8457103;28;20114;-83
2022/05/18 13:36:39;;;;;;;3.25;1.00;;;;;;;;;;8463215;28;20334;-83
2022/05/18 13:40:49;;;;;;;1.98;1.00;;;;;;;;;;8462888;28;20483;-85
2022/05/18 13:44:57;;;;;;;1.08;0.95;;;;;;;;;;8463115;28;20042;-83
2022/05/18 13:49:05;;;;;;;1.48;1.00;;;;;;;;;;8462795;28;20044;-83
2022/05/18 13:53:14;;;;;;;4.32;1.20;;;;;;;;;;8463026;28;20479;-84
2022/05/18 13:57:26;;;;;;;1.70;1.10;;;;;;;;;;8455537;28;20054;-83
2022/05/18 14:01:47;;;;;;;2.50;1.00;;;;;;;;;;8461876;28;20040;-83
2022/05/18 14:05:54;;;;;;;1.95;0.90;;;;;;;;;;8454766;28;20127;-83
2022/05/18 14:10:09;;;;;;;2.28;1.05;;;;;;;;;;8456950;28;20406;-84
2022/05/18 14:14:21;;;;;;;1.20;0.90;;;;;;;;;;8456384;28;20051;-86
2022/05/18 14:18:40;;;;;;;1.63;1.05;;;;;;;;;;8458073;28;20062;-84
2022/05/18 14:22:51;;;;;;;1.63;0.90;;;;;;;;;;8459689;28;20134;-84
2022/05/18 14:27:03;;;;;;;1.42;1.15;;;;;;;;;;8460715;28;20551;-83
2022/05/18 14:31:23;;;;;;;1.52;1.05;;;;;;;;;;8460706;28;20043;-84
2022/05/18 14:36:25;;;;;;;0.82;0.80;;;;;;;;;;8461477;28;20048;-84
2022/05/18 14:40:45;;;;;;;1.15;0.82;;;;;;;;;;8458208;28;20058;-85
2022/05/18 14:45:00;;;;;;;1.85;1.65;;;;;;;;;;8465076;28;20080;-83
2022/05/18 14:49:15;;;;;;;1.83;1.20;;;;;;;;;;8453107;28;20524;-83
2022/05/18 14:53:44;;;;;;;1.85;0.75;;;;;;;;;;8440753;28;20058;-83
2022/05/18 14:57:52;;;;;;;4.03;1.10;;;;;;;;;;8462966;28;20185;-83
2022/05/18 15:01:59;;;;;;;2.65;1.10;;;;;;;;;;8448610;28;20055;-81
2022/05/18 15:06:02;;;;;;;4.15;1.70;;;;;;;;;;8462772;28;20040;-82
2022/05/18 15:10:18;;;;;;;3.72;1.42;;;;;;;;;;8455547;28;20415;-83
2022/05/18 15:14:41;;;;;;;4.20;1.38;;;;;;;;;;8463848;28;20043;-82
2022/05/18 15:18:45;;;;;;;2.47;1.40;;;;;;;;;;8451024;28;20060;-82
2022/05/18 15:22:52;;;;;;;6.65;1.98;;;;;;;;;;8450635;28;20131;-82
2022/05/18 15:26:57;;;;;;;2.05;1.20;;;;;;;;;;8443863;28;20108;-82
2022/05/18 15:31:05;;;;;;;2.85;1.13;;;;;;;;;;8452603;28;20487;-82
2022/05/18 15:35:13;;;;;;;5.22;1.55;;;;;;;;;;8454422;28;20050;-83
2022/05/18 15:39:17;;;;;;;2.92;1.17;;;;;;;;;;8450072;28;20058;-82
2022/05/18 15:43:22;;;;;;;1.65;1.20;;;;;;;;;;8455954;28;20535;-82
2022/05/18 15:47:28;;;;;;;1.50;1.05;;;;;;;;;;8462015;28;20036;-81
2022/05/18 15:51:30;;;;;;;3.22;1.70;;;;;;;;;;8452997;28;20048;-83
2022/05/18 15:55:34;;;;;;;4.43;1.90;;;;;;;;;;8453355;28;20059;-83
2022/05/18 15:59:38;;;;;;;5.70;1.30;;;;;;;;;;8459014;28;20052;-83
2022/05/18 16:03:41;;;;;;;2.70;1.50;;;;;;;;;;8458024;28;20051;-83
2022/05/18 16:07:47;;;;;;;13.73;2.72;;;;;;;;;;8453759;28;20135;-85
2022/05/18 16:11:52;;;;;;;6.32;2.15;;;;;;;;;;8457278;28;20410;-83
2022/05/18 16:16:00;;;;;;;5.72;1.92;;;;;;;;;;8457135;28;20130;-84
2022/05/18 16:20:08;;;;;;;3.78;1.50;;;;;;;;;;8455994;28;20558;-83
2022/05/18 16:24:20;;;;;;;5.70;2.92;;;;;;;;;;8458392;28;20067;-83
2022/05/18 16:28:28;;;;;;;5.03;2.30;;;;;;;;;;8452824;28;20047;-83
2022/05/18 16:32:32;;;;;;;3.88;2.10;;;;;;;;;;8452163;28;20036;-83
2022/05/18 16:36:35;;;;;;;5.60;1.85;;;;;;;;;;8462623;28;20048;-82
2022/05/18 16:40:38;;;;;;;6.05;2.20;;;;;;;;;;8453104;28;20435;-82
2022/05/18 16:44:44;;;;;;;3.50;1.60;;;;;;;;;;8456019;28;20047;-82
2022/05/18 16:48:48;;;;;;;2.88;1.45;;;;;;;;;;8459987;28;20048;-83
2022/05/18 16:52:51;;;;;;;3.90;2.03;;;;;;;;;;8456159;28;20047;-83
2022/05/18 16:56:56;;;;;;;5.40;2.13;;;;;;;;;;8460564;28;20043;-83
2022/05/18 17:01:00;;;;;;;3.83;2.05;;;;;;;;;;8463230;28;20051;-83
2022/05/18 17:09:26;;;;;;;4.15;1.88;;;;;;;;;;8459050;28;20100;-83
2022/05/18 17:13:29;;;;;;;2.90;1.77;;;;;;;;;;8464076;28;20486;-83
2022/05/18 17:17:34;;;;;;;4.85;1.80;;;;;;;;;;8464112;28;20051;-83
2022/05/18 17:21:39;;;;;;;5.47;3.08;;;;;;;;;;8457312;28;20151;-82
2022/05/18 17:25:42;;;;;;;3.42;1.80;;;;;;;;;;8457603;28;20047;-83
2022/05/18 17:29:48;;;;;;;3.55;2.10;;;;;;;;;;8456999;28;20070;-84
2022/05/18 17:33:52;;;;;;;5.10;2.50;;;;;;;;;;8456687;28;20081;-83
2022/05/18 17:37:56;;;;;;;3.92;2.08;;;;;;;;;;8463925;28;20487;-84
2022/05/18 17:41:59;;;;;;;8.50;2.42;;;;;;;;;;8463513;28;20052;-82
2022/05/18 17:46:03;;;;;;;10.65;3.40;;;;;;;;;;8460977;28;20493;-83
2022/05/18 17:50:07;;;;;;;10.45;3.63;;;;;;;;;;8462845;28;20047;-82
2022/05/18 17:54:12;;;;;;;10.82;4.15;;;;;;;;;;8462669;28;20047;-82
2022/05/18 17:58:16;;;;;;;8.40;3.72;;;;;;;;;;8462766;28;20054;-84
2022/05/18 18:02:22;;;;;;;18.05;10.82;;;;;;;;;;8465703;28;20056;-82
2022/05/18 18:06:25;;;;;;;15.82;6.05;;;;;;;;;;8467342;28;20047;-83
2022/05/18 18:10:32;;;;;;;6.93;3.25;;;;;;;;;;8467066;28;20073;-82
2022/05/18 18:14:35;;;;;;;8.40;4.10;;;;;;;;;;8466936;28;20088;-81
2022/05/18 18:18:48;;;;;;;11.27;5.18;;;;;;;;;;8459476;28;20135;-84
2022/05/18 18:22:56;;;;;;;6.13;2.90;;;;;;;;;;8459756;28;20480;-82
2022/05/18 18:27:04;;;;;;;31.77;16.15;;;;;;;;;;8456826;28;20138;-83
2022/05/18 18:31:11;;;;;;;34.20;15.98;;;;;;;;;;8464693;28;20063;-83
2022/05/18 18:35:21;;;;;;;16.02;8.02;;;;;;;;;;8460875;28;20039;-83
2022/05/18 18:39:32;;;;;;;11.95;5.47;;;;;;;;;;8462390;28;20498;-84
2022/05/18 18:43:40;;;;;;;15.32;5.63;;;;;;;;;;8464060;28;20510;-82
2022/05/18 18:47:46;;;;;;;12.90;6.32;;;;;;;;;;8461078;28;20499;-83
2022/05/18 18:56:42;;;;;;;14.88;7.82;;;;;;;;;;8461341;28;20403;-83
2022/05/18 19:00:59;;;;;;;22.35;9.27;;;;;;;;;;8461237;28;20039;-84
2022/05/18 19:05:06;;;;;;;29.02;13.38;;;;;;;;;;8461907;28;20036;-82
2022/05/18 19:09:16;;;;;;;32.47;16.35;;;;;;;;;;8455319;28;20043;-83
2022/05/18 19:13:21;;;;;;;26.15;10.70;;;;;;;;;;8464670;28;20036;-82
2022/05/18 19:17:31;;;;;;;10.85;5.03;;;;;;;;;;8465246;28;20066;-84
2022/05/18 19:21:54;;;;;;;10.57;3.67;;;;;;;;;;8464744;28;20052;-83
2022/05/18 19:25:59;;;;;;;10.38;4.55;;;;;;;;;;8464847;28;20051;-83
2022/05/18 19:30:25;;;;;;;11.05;4.70;;;;;;;;;;8464845;28;20077;-84
2022/05/18 19:34:31;;;;;;;9.52;3.72;;;;;;;;;;8464476;28;20043;-82
2022/05/18 19:38:39;;;;;;;10.45;4.80;;;;;;;;;;8458560;28;20040;-84
2022/05/18 19:42:47;;;;;;;8.90;4.03;;;;;;;;;;8458788;28;20443;-82
2022/05/18 19:46:51;;;;;;;12.38;3.90;;;;;;;;;;8464210;28;20066;-84
2022/05/18 19:50:56;;;;;;;10.60;4.10;;;;;;;;;;8465019;28;20398;-83
2022/05/18 19:54:59;;;;;;;9.05;3.50;;;;;;;;;;8463888;28;20051;-81
2022/05/18 19:59:02;;;;;;;9.65;3.53;;;;;;;;;;8464374;28;20135;-81
2022/05/18 20:03:06;;;;;;;30.08;7.80;;;;;;;;;;8457130;28;20051;-81
2022/05/18 20:07:12;;;;;;;10.25;3.13;;;;;;;;;;8463597;28;20073;-81
2022/05/18 20:11:15;;;;;;;10.55;2.72;;;;;;;;;;8463484;28;20059;-82
2022/05/18 20:15:22;;;;;;;6.18;2.67;;;;;;;;;;8463528;28;20048;-81
2022/05/18 20:19:25;;;;;;;5.57;2.65;;;;;;;;;;8464040;28;20410;-81
2022/05/18 20:23:30;;;;;;;5.75;2.88;;;;;;;;;;8463194;28;20047;-82
2022/05/18 20:27:34;;;;;;;8.48;2.80;;;;;;;;;;8463457;28;20183;-81
2022/05/18 20:31:37;;;;;;;7.65;2.88;;;;;;;;;;8463767;28;20048;-81
2022/05/18 20:35:40;;;;;;;8.30;3.30;;;;;;;;;;8463203;28;20571;-82
2022/05/18 20:39:45;;;;;;;5.82;3.03;;;;;;;;;;8463636;28;20563;-81
2022/05/18 20:43:50;;;;;;;6.43;2.92;;;;;;;;;;8463210;28;20048;-82
2022/05/18 20:47:53;;;;;;;4.10;2.10;;;;;;;;;;8463000;28;20048;-81
2022/05/18 20:51:56;;;;;;;5.47;2.83;;;;;;;;;;8462883;28;20048;-81
2022/05/18 20:56:02;;;;;;;5.82;2.33;;;;;;;;;;8462876;28;20040;-81
2022/05/18 21:00:07;;;;;;;4.38;1.90;;;;;;;;;;8457780;28;20048;-81
2022/05/18 21:04:11;;;;;;;4.78;2.00;;;;;;;;;;8462880;28;20066;-81
2022/05/18 21:08:14;;;;;;;4.43;1.77;;;;;;;;;;8462705;28;20054;-81
2022/05/18 21:12:19;;;;;;;3.65;1.80;;;;;;;;;;8462743;28;20078;-81
2022/05/18 21:16:22;;;;;;;5.35;1.90;;;;;;;;;;8462655;28;20108;-81
2022/05/18 21:20:25;;;;;;;5.68;2.05;;;;;;;;;;8466077;28;20127;-82
2022/05/18 21:24:28;;;;;;;4.35;2.30;;;;;;;;;;8468579;28;20051;-82
2022/05/18 21:28:33;;;;;;;5.97;2.35;;;;;;;;;;8468680;28;20513;-81
2022/05/18 21:32:39;;;;;;;3.05;1.80;;;;;;;;;;8467891;28;20050;-80
2022/05/18 21:36:42;;;;;;;6.22;2.33;;;;;;;;;;8468327;28;20042;-81
2022/05/18 21:40:46;;;;;;;4.70;2.20;;;;;;;;;;8468279;28;20043;-81
2022/05/18 21:44:50;;;;;;;3.53;1.80;;;;;;;;;;8467989;28;20108;-81
2022/05/18 21:48:52;;;;;;;4.95;2.38;;;;;;;;;;8467926;28;20130;-81
2022/05/18 21:52:55;;;;;;;4.53;2.38;;;;;;;;;;8467740;28;20043;-81
2022/05/18 21:57:01;;;;;;;5.20;2.53;;;;;;;;;;8460846;28;20048;-81
2022/05/18 22:01:06;;;;;;;6.00;2.03;;;;;;;;;;8460982;28;20082;-81
2022/05/18 22:05:09;;;;;;;4.75;2.50;;;;;;;;;;8467396;28;20066;-81
2022/05/18 22:09:11;;;;;;;7.32;2.90;;;;;;;;;;8467245;28;20171;-81
2022/05/18 22:13:15;;;;;;;6.25;3.20;;;;;;;;;;8467079;28;20044;-82
2022/05/18 22:17:20;;;;;;;8.32;3.67;;;;;;;;;;8466704;28;20047;-81
2022/05/18 22:21:23;;;;;;;9.43;4.20;;;;;;;;;;8466768;28;20054;-81
2022/05/18 22:25:27;;;;;;;10.65;4.35;;;;;;;;;;8464784;28;20435;-81
2022/05/18 22:29:30;;;;;;;10.55;4.30;;;;;;;;;;8466981;28;20054;-81
2022/05/18 22:33:36;;;;;;;12.43;5.03;;;;;;;;;;8466336;28;20636;-81
2022/05/18 22:37:39;;;;;;;14.13;4.95;;;;;;;;;;8466361;28;20047;-81
2022/05/18 22:41:43;;;;;;;9.68;3.80;;;;;;;;;;8466271;28;20043;-81
2022/05/18 22:45:47;;;;;;;11.85;4.93;;;;;;;;;;8466083;28;20051;-81
2022/05/18 22:49:53;;;;;;;11.70;4.43;;;;;;;;;;8465973;28;20480;-81
2022/05/18 22:53:56;;;;;;;8.50;4.22;;;;;;;;;;8465722;28;20047;-81
2022/05/18 22:57:58;;;;;;;10.02;4.38;;;;;;;;;;8465576;28;20484;-81
2022/05/18 23:02:01;;;;;;;11.02;4.35;;;;;;;;;;8465942;28;20051;-81
2022/05/18 23:06:06;;;;;;;8.85;4.13;;;;;;;;;;8465363;28;20504;-81
2022/05/18 23:10:11;;;;;;;9.65;4.50;;;;;;;;;;8466130;28;20058;-81
2022/05/18 23:14:13;;;;;;;8.93;4.72;;;;;;;;;;8464950;28;20147;-81
2022/05/18 23:18:17;;;;;;;9.45;4.30;;;;;;;;;;8464949;28;20050;-81
2022/05/18 23:22:21;;;;;;;11.90;4.50;;;;;;;;;;8464795;28;20506;-81
2022/05/18 23:26:25;;;;;;;9.88;4.32;;;;;;;;;;8465129;28;20043;-81
2022/05/18 23:30:28;;;;;;;14.80;5.10;;;;;;;;;;8464726;28;20039;-81
2022/05/18 23:34:33;;;;;;;10.35;4.68;;;;;;;;;;8464918;28;20395;-81
2022/05/18 23:38:38;;;;;;;9.10;4.68;;;;;;;;;;8458212;28;20039;-81
2022/05/18 23:42:44;;;;;;;10.77;4.63;;;;;;;;;;8458098;28;20051;-81
2022/05/18 23:46:47;;;;;;;17.92;5.07;;;;;;;;;;8450354;28;20045;-82
2022/05/18 23:55:10;;;;;;;9.45;4.22;;;;;;;;;;8456503;28;20043;-82
2022/05/18 23:59:23;;;;;;;10.25;4.43;;;;;;;;;;8464357;28;20043;-83
